Time;durP1;ratioP1;P1;durP2;ratioP2;P2;SDS_P1;SDS_P2;PMS_P1;PMS_P2;Temp;Humidity;BMP_temperature;BMP_pressure;BME280_temperature;BME280_humidity;BME280_pressure;Samples;Min_cycle;Max_cycle;Signal;HPM_P1;HPM_P2
2024/01/14 00:01:16;;;;;;;41.80;20.53;;;-1.30;21.70;;;;;;5026499;28;20566;-69
2024/01/14 00:03:43;;;;;;;49.33;22.20;;;-1.30;21.70;;;;;;5025930;28;21215;-69
2024/01/14 00:06:09;;;;;;;46.47;22.70;;;-1.30;21.70;;;;;;5024209;28;20463;-69
2024/01/14 00:08:36;;;;;;;43.77;21.10;;;-1.30;21.70;;;;;;5023570;28;21076;-69
2024/01/14 00:11:03;;;;;;;40.27;20.93;;;-1.30;21.50;;;;;;5013767;28;20492;-69
2024/01/14 00:13:30;;;;;;;44.60;21.57;;;-1.30;21.40;;;;;;5023305;28;20465;-69
2024/01/14 00:15:58;;;;;;;42.03;20.00;;;-1.30;21.30;;;;;;5026274;28;20458;-69
2024/01/14 00:18:25;;;;;;;42.33;19.83;;;-1.30;21.20;;;;;;5019869;28;20483;-69
2024/01/14 00:20:52;;;;;;;45.60;20.57;;;-1.30;21.20;;;;;;5028269;28;20975;-69
2024/01/14 00:23:18;;;;;;;45.63;21.20;;;-1.30;21.20;;;;;;5028800;28;21120;-69
2024/01/14 00:25:45;;;;;;;41.40;20.77;;;-1.30;20.90;;;;;;5027012;28;20954;-69
2024/01/14 00:28:12;;;;;;;36.40;19.97;;;-1.20;20.70;;;;;;5023355;28;20513;-70
2024/01/14 00:30:39;;;;;;;47.27;20.27;;;-1.20;20.60;;;;;;5019143;28;20466;-69
2024/01/14 00:33:07;;;;;;;46.37;20.90;;;-1.20;20.60;;;;;;5025201;28;20461;-69
2024/01/14 00:35:34;;;;;;;40.73;19.57;;;-1.20;20.60;;;;;;5026030;28;20550;-69
2024/01/14 00:38:02;;;;;;;40.03;21.73;;;-1.20;20.70;;;;;;5026745;28;20486;-69
2024/01/14 00:40:29;;;;;;;41.80;20.37;;;-1.30;20.70;;;;;;5026814;28;20479;-69
2024/01/14 00:42:56;;;;;;;44.43;19.90;;;-1.30;20.70;;;;;;5028244;28;20474;-69
2024/01/14 00:45:23;;;;;;;43.70;20.70;;;-1.30;21.30;;;;;;5025627;28;20459;-69
2024/01/14 00:47:50;;;;;;;43.17;20.60;;;-1.40;20.50;;;;;;5018626;28;20571;-69
2024/01/14 00:50:18;;;;;;;40.67;19.90;;;-1.40;20.50;;;;;;5021554;28;20919;-69
2024/01/14 00:52:44;;;;;;;41.97;19.97;;;-1.40;20.70;;;;;;5020923;28;20990;-69
2024/01/14 00:55:11;;;;;;;43.57;22.00;;;-1.40;20.80;;;;;;5022702;28;20973;-69
2024/01/14 00:57:38;;;;;;;46.63;21.27;;;-1.40;21.40;;;;;;5024049;28;20483;-69
2024/01/14 01:00:09;;;;;;;48.30;21.10;;;-1.40;20.90;;;;;;5023999;28;20479;-69
2024/01/14 01:02:35;;;;;;;50.77;21.13;;;-1.40;21.00;;;;;;5023697;28;20541;-69
2024/01/14 01:05:02;;;;;;;45.63;21.70;;;-1.50;21.10;;;;;;5018231;28;20462;-69
2024/01/14 01:07:30;;;;;;;48.17;21.20;;;-1.40;21.10;;;;;;5024018;28;20985;-69
2024/01/14 01:09:57;;;;;;;48.10;20.70;;;-1.40;21.10;;;;;;5026138;28;20919;-69
2024/01/14 01:12:24;;;;;;;46.67;19.83;;;-1.40;21.20;;;;;;5023365;28;20550;-69
2024/01/14 01:14:51;;;;;;;49.57;21.80;;;-1.40;21.10;;;;;;5021280;28;20559;-69
2024/01/14 01:17:18;;;;;;;40.37;20.73;;;-1.40;20.90;;;;;;5018661;28;20562;-69
2024/01/14 01:19:45;;;;;;;41.53;19.97;;;-1.40;20.90;;;;;;5020493;28;20533;-69
2024/01/14 01:22:12;;;;;;;44.33;20.20;;;-1.40;20.90;;;;;;5017863;28;20467;-69
2024/01/14 01:24:40;;;;;;;42.23;18.13;;;-1.50;20.90;;;;;;5022780;28;20537;-69
2024/01/14 01:27:07;;;;;;;42.57;20.23;;;-1.40;20.90;;;;;;5018627;28;20885;-69
2024/01/14 01:29:33;;;;;;;49.03;22.63;;;-1.50;20.90;;;;;;5023876;28;20872;-69
2024/01/14 01:32:00;;;;;;;48.63;21.93;;;-1.50;20.80;;;;;;5023011;28;20481;-69
2024/01/14 01:34:27;;;;;;;45.10;20.93;;;-1.50;20.80;;;;;;5025916;28;20910;-69
2024/01/14 01:36:54;;;;;;;37.60;20.23;;;-1.50;20.90;;;;;;5025187;28;20573;-69
2024/01/14 01:39:21;;;;;;;43.40;22.10;;;-1.50;20.90;;;;;;5019141;28;21158;-69
2024/01/14 01:41:51;;;;;;;42.67;19.13;;;-1.50;21.10;;;;;;5025426;28;20478;-69
2024/01/14 01:44:19;;;;;;;43.90;19.67;;;-1.50;21.00;;;;;;5023596;28;20466;-69
2024/01/14 01:46:46;;;;;;;40.50;19.73;;;-1.50;20.90;;;;;;5023482;28;20482;-69
2024/01/14 01:49:13;;;;;;;44.90;20.17;;;-1.50;20.90;;;;;;5023188;28;20477;-69
2024/01/14 01:51:43;;;;;;;41.30;20.40;;;-1.50;21.00;;;;;;5024589;28;20456;-69
2024/01/14 01:54:10;;;;;;;41.83;21.10;;;-1.50;21.10;;;;;;5025381;28;20537;-69
2024/01/14 01:56:39;;;;;;;39.80;20.40;;;-1.50;21.00;;;;;;5026269;28;20482;-69
2024/01/14 01:59:07;;;;;;;45.10;19.73;;;-1.50;21.10;;;;;;5019008;28;20459;-69
2024/01/14 02:01:35;;;;;;;39.60;21.13;;;-1.60;21.10;;;;;;5019938;28;20496;-69
2024/01/14 02:04:03;;;;;;;48.70;21.60;;;-1.60;21.20;;;;;;5033628;28;20467;-69
2024/01/14 02:06:31;;;;;;;45.63;21.00;;;-1.60;21.30;;;;;;5030676;28;20479;-69
2024/01/14 02:08:58;;;;;;;40.43;20.73;;;-1.60;21.30;;;;;;5032082;28;20454;-69
2024/01/14 02:11:25;;;;;;;45.73;20.73;;;-1.50;21.90;;;;;;5032565;28;21028;-69
2024/01/14 02:13:52;;;;;;;43.87;19.30;;;-1.60;21.10;;;;;;5031980;28;20463;-69
2024/01/14 02:16:21;;;;;;;42.40;21.67;;;-1.60;21.10;;;;;;5024378;28;20461;-69
2024/01/14 02:18:48;;;;;;;42.10;20.07;;;-1.60;21.20;;;;;;5033596;28;20513;-69
2024/01/14 02:21:20;;;;;;;45.43;23.07;;;-1.60;21.20;;;;;;5032648;28;20566;-69
2024/01/14 02:23:54;;;;;;;48.73;20.93;;;-1.60;21.30;;;;;;5029044;28;21034;-69
2024/01/14 02:26:22;;;;;;;39.90;21.80;;;-1.50;21.40;;;;;;5029466;28;20493;-69
2024/01/14 02:28:49;;;;;;;39.77;19.80;;;-1.50;21.40;;;;;;5028236;28;20955;-69
2024/01/14 02:31:17;;;;;;;44.50;21.13;;;-1.50;21.40;;;;;;5023391;28;20987;-69
2024/01/14 02:33:43;;;;;;;39.73;21.97;;;-1.50;21.30;;;;;;5011472;28;20463;-69
2024/01/14 02:36:10;;;;;;;42.23;19.90;;;-1.50;21.10;;;;;;5006288;28;20474;-69
2024/01/14 02:38:37;;;;;;;45.70;21.73;;;-1.50;21.20;;;;;;5007657;28;20472;-69
2024/01/14 02:41:03;;;;;;;42.20;19.43;;;-1.50;21.20;;;;;;5008834;28;20475;-69
2024/01/14 02:43:31;;;;;;;38.33;18.97;;;-1.50;21.10;;;;;;5011851;28;20459;-69
2024/01/14 02:45:57;;;;;;;45.50;20.73;;;-1.50;21.20;;;;;;5005469;28;20480;-69
2024/01/14 02:48:24;;;;;;;39.77;19.70;;;-1.50;21.10;;;;;;5000976;28;21358;-69
2024/01/14 02:50:51;;;;;;;36.40;17.60;;;-1.50;21.10;;;;;;5010234;28;20462;-69
2024/01/14 02:53:18;;;;;;;48.00;19.70;;;-1.60;21.20;;;;;;5017513;28;20559;-69
2024/01/14 02:55:45;;;;;;;40.40;18.47;;;-1.60;21.20;;;;;;5008674;28;20857;-69
2024/01/14 02:58:11;;;;;;;42.57;19.00;;;-1.60;21.30;;;;;;5007103;28;21252;-69
2024/01/14 03:00:40;;;;;;;38.10;19.47;;;-1.60;21.20;;;;;;5006972;28;20547;-69
2024/01/14 03:03:07;;;;;;;49.80;22.50;;;-1.60;21.80;;;;;;5031876;28;20458;-69
2024/01/14 03:05:34;;;;;;;42.80;19.27;;;-1.60;21.20;;;;;;5032995;28;20584;-69
2024/01/14 03:08:01;;;;;;;40.50;19.17;;;-1.50;21.20;;;;;;5026893;28;20478;-69
2024/01/14 03:10:27;;;;;;;39.13;19.70;;;-1.50;21.10;;;;;;5026803;28;21018;-69
2024/01/14 03:12:54;;;;;;;46.90;20.20;;;-1.50;21.10;;;;;;5027120;28;20457;-69
2024/01/14 03:15:21;;;;;;;34.33;17.10;;;-1.50;21.10;;;;;;5025240;28;20459;-69
2024/01/14 03:17:49;;;;;;;36.13;19.47;;;-1.50;21.10;;;;;;5025137;28;20485;-69
2024/01/14 03:20:16;;;;;;;36.13;18.50;;;-1.50;21.10;;;;;;5033027;28;20573;-69
2024/01/14 03:22:43;;;;;;;43.90;19.60;;;-1.50;21.10;;;;;;5030712;28;20467;-69
2024/01/14 03:25:10;;;;;;;40.77;18.80;;;-1.50;21.00;;;;;;5023658;28;20491;-69
2024/01/14 03:27:37;;;;;;;37.83;19.57;;;-1.50;21.10;;;;;;5027016;28;20486;-69
2024/01/14 03:30:04;;;;;;;42.10;20.83;;;-1.50;20.90;;;;;;5024687;28;20538;-69
2024/01/14 03:32:31;;;;;;;38.60;19.43;;;-1.50;20.80;;;;;;5004011;28;20464;-69
2024/01/14 03:34:59;;;;;;;44.03;20.27;;;-1.60;20.90;;;;;;5010309;28;20546;-70
2024/01/14 03:37:26;;;;;;;46.27;20.07;;;-1.50;21.00;;;;;;5006474;28;20471;-69
2024/01/14 03:39:54;;;;;;;40.30;20.13;;;-1.60;20.90;;;;;;5004123;28;20457;-69
2024/01/14 03:42:20;;;;;;;42.40;19.43;;;-1.50;20.90;;;;;;5005823;28;20512;-69
2024/01/14 03:44:47;;;;;;;37.83;21.37;;;-1.50;20.60;;;;;;5003031;28;20460;-69
2024/01/14 03:47:14;;;;;;;34.73;18.00;;;-1.60;20.30;;;;;;5005791;28;20490;-69
2024/01/14 03:49:41;;;;;;;42.97;19.10;;;-1.60;20.50;;;;;;5007886;28;20844;-69
2024/01/14 03:52:09;;;;;;;35.07;17.70;;;-1.60;20.60;;;;;;5005205;28;20470;-69
2024/01/14 03:54:35;;;;;;;41.63;19.60;;;-1.60;20.60;;;;;;5007396;28;20460;-69
2024/01/14 03:57:02;;;;;;;38.93;18.80;;;-1.60;20.60;;;;;;5007940;28;20486;-69
2024/01/14 03:59:29;;;;;;;39.77;20.60;;;-1.60;20.60;;;;;;5002935;28;20964;-69
2024/01/14 04:01:56;;;;;;;39.97;19.53;;;-1.50;20.70;;;;;;5018023;28;20486;-69
2024/01/14 04:04:23;;;;;;;43.73;19.80;;;-1.60;20.60;;;;;;5030679;28;20458;-69
2024/01/14 04:06:50;;;;;;;39.60;18.60;;;-1.50;20.40;;;;;;5025082;28;20482;-69
2024/01/14 04:09:18;;;;;;;36.13;19.33;;;-1.50;20.20;;;;;;5016645;28;20498;-69
2024/01/14 04:11:44;;;;;;;31.10;17.00;;;-1.50;20.00;;;;;;5025993;28;20550;-69
2024/01/14 04:14:11;;;;;;;36.87;19.07;;;-1.50;20.10;;;;;;5020780;28;20467;-69
2024/01/14 04:16:38;;;;;;;38.20;17.40;;;-1.50;20.30;;;;;;5027039;28;20570;-69
2024/01/14 04:19:05;;;;;;;32.50;17.20;;;-1.50;20.30;;;;;;5017488;28;20466;-69
2024/01/14 04:21:32;;;;;;;43.87;20.60;;;-1.50;20.00;;;;;;5027555;28;20490;-69
2024/01/14 04:23:59;;;;;;;36.53;17.30;;;-1.50;20.00;;;;;;5024744;28;20555;-69
2024/01/14 04:26:27;;;;;;;37.60;18.50;;;-1.50;20.00;;;;;;5023456;28;20494;-69
2024/01/14 04:28:54;;;;;;;41.57;19.70;;;-1.50;20.00;;;;;;5017759;28;20460;-69
2024/01/14 04:31:21;;;;;;;32.53;18.53;;;-1.60;20.00;;;;;;5017968;28;20472;-69
2024/01/14 04:33:49;;;;;;;37.43;18.47;;;-1.60;19.90;;;;;;5008693;28;20460;-69
2024/01/14 04:36:16;;;;;;;34.17;17.10;;;-1.60;19.90;;;;;;5002174;28;21232;-69
2024/01/14 04:38:43;;;;;;;32.57;17.63;;;-1.60;20.00;;;;;;5006827;28;20547;-69
2024/01/14 04:41:10;;;;;;;47.57;20.90;;;-1.60;20.60;;;;;;5003019;28;20494;-69
2024/01/14 04:43:38;;;;;;;40.33;20.43;;;-1.60;20.00;;;;;;5006911;28;20868;-69
2024/01/14 04:46:08;;;;;;;42.37;20.77;;;-1.60;20.00;;;;;;5006524;28;20459;-69
2024/01/14 04:48:35;;;;;;;36.00;17.53;;;-1.60;20.00;;;;;;5011038;28;20467;-69
2024/01/14 04:51:02;;;;;;;42.50;20.20;;;-1.70;20.10;;;;;;5003321;28;20471;-69
2024/01/14 04:53:29;;;;;;;48.93;21.97;;;-1.60;20.10;;;;;;5009704;28;20455;-69
2024/01/14 04:55:56;;;;;;;45.60;18.77;;;-1.60;20.00;;;;;;5010447;28;20538;-69
2024/01/14 04:58:22;;;;;;;40.63;17.90;;;-1.60;20.00;;;;;;5007736;28;20490;-69
2024/01/14 05:00:51;;;;;;;48.57;21.73;;;-1.60;20.10;;;;;;5009408;28;20471;-69
2024/01/14 05:03:17;;;;;;;39.40;20.30;;;-1.60;20.20;;;;;;5006387;28;20761;-69
2024/01/14 05:05:44;;;;;;;43.83;19.43;;;-1.60;20.20;;;;;;5000704;28;20559;-69
2024/01/14 05:08:11;;;;;;;42.50;19.77;;;-1.60;20.10;;;;;;5005798;28;20576;-69
2024/01/14 05:10:38;;;;;;;42.30;21.53;;;-1.60;20.10;;;;;;5006083;28;20543;-69
2024/01/14 05:13:04;;;;;;;44.90;22.70;;;-1.60;20.00;;;;;;5007957;28;21279;-69
2024/01/14 05:15:31;;;;;;;44.37;21.57;;;-1.60;20.00;;;;;;5007339;28;20462;-69
2024/01/14 05:17:59;;;;;;;54.47;20.47;;;-1.60;20.00;;;;;;5005751;28;20487;-69
2024/01/14 05:20:27;;;;;;;49.47;21.17;;;-1.60;20.00;;;;;;5006752;28;20460;-69
2024/01/14 05:22:54;;;;;;;42.87;20.53;;;-1.60;20.00;;;;;;5006065;28;20483;-69
2024/01/14 05:25:21;;;;;;;47.10;22.47;;;-1.60;20.00;;;;;;5006628;28;20463;-69
2024/01/14 05:27:48;;;;;;;47.47;22.03;;;-1.60;20.00;;;;;;5004250;28;20484;-69
2024/01/14 05:30:15;;;;;;;50.50;23.33;;;-1.50;20.00;;;;;;5007320;28;20468;-69
2024/01/14 05:32:42;;;;;;;49.93;22.93;;;-1.50;20.00;;;;;;5025718;28;20551;-69
2024/01/14 05:35:10;;;;;;;47.93;20.33;;;-1.60;19.90;;;;;;5022897;28;20642;-69
2024/01/14 05:37:36;;;;;;;51.23;22.20;;;-1.60;19.80;;;;;;5022237;28;20484;-69
2024/01/14 05:40:05;;;;;;;47.40;21.60;;;-1.60;19.80;;;;;;5020480;28;20465;-69
2024/01/14 05:42:31;;;;;;;46.97;22.30;;;-1.60;19.90;;;;;;5024588;28;20479;-69
2024/01/14 05:44:58;;;;;;;45.87;21.70;;;-1.60;19.90;;;;;;5025508;28;20463;-69
2024/01/14 05:47:25;;;;;;;43.80;19.93;;;-1.60;19.80;;;;;;5022185;28;20486;-69
2024/01/14 05:49:52;;;;;;;51.57;20.80;;;-1.60;19.70;;;;;;5023702;28;20463;-69
2024/01/14 05:52:20;;;;;;;47.10;20.30;;;-1.60;19.70;;;;;;5024039;28;20462;-69
2024/01/14 05:54:47;;;;;;;46.60;20.33;;;-1.60;19.60;;;;;;5023805;28;20463;-69
2024/01/14 05:57:13;;;;;;;50.60;21.50;;;-1.60;19.70;;;;;;5023900;28;20475;-69
2024/01/14 05:59:41;;;;;;;47.93;20.70;;;-1.60;19.60;;;;;;5023337;28;20458;-69
2024/01/14 06:02:08;;;;;;;43.23;20.50;;;-1.60;19.60;;;;;;5008013;28;20476;-69
2024/01/14 06:04:35;;;;;;;49.47;20.43;;;-1.60;19.60;;;;;;5006878;28;20562;-69
2024/01/14 06:07:02;;;;;;;43.17;20.40;;;-1.60;19.50;;;;;;5005858;28;20486;-69
2024/01/14 06:09:30;;;;;;;50.53;20.53;;;-1.60;19.50;;;;;;5006518;28;20469;-69
2024/01/14 06:11:56;;;;;;;35.97;19.17;;;-1.60;19.20;;;;;;5006274;28;20468;-69
2024/01/14 06:14:23;;;;;;;45.97;20.30;;;-1.60;19.10;;;;;;5007236;28;20469;-69
2024/01/14 06:16:50;;;;;;;43.50;18.40;;;-1.60;18.90;;;;;;5004522;28;20488;-69
2024/01/14 06:19:17;;;;;;;44.70;19.83;;;-1.70;19.00;;;;;;5006927;28;20470;-69
2024/01/14 06:21:44;;;;;;;42.60;19.37;;;-1.70;18.60;;;;;;5004264;28;20524;-69
2024/01/14 06:24:14;;;;;;;47.43;20.00;;;-1.70;18.50;;;;;;5006897;28;20466;-69
2024/01/14 06:26:42;;;;;;;41.87;19.43;;;-1.70;18.60;;;;;;5006380;28;21378;-69
2024/01/14 06:29:09;;;;;;;47.37;20.47;;;-1.70;18.60;;;;;;5005605;28;20848;-69
2024/01/14 06:31:35;;;;;;;47.77;19.97;;;-1.80;18.50;;;;;;5014132;28;20471;-69
2024/01/14 06:34:02;;;;;;;42.63;20.00;;;-1.80;18.60;;;;;;5024563;28;20464;-69
2024/01/14 06:36:29;;;;;;;42.73;19.40;;;-1.80;18.60;;;;;;5025168;28;21216;-69
2024/01/14 06:38:55;;;;;;;48.27;21.80;;;-1.80;18.70;;;;;;5023110;28;20984;-69
2024/01/14 06:41:24;;;;;;;44.63;20.90;;;-1.90;18.70;;;;;;5024335;28;20489;-69
2024/01/14 06:43:53;;;;;;;43.20;18.50;;;-2.00;18.70;;;;;;5019510;28;20486;-69
2024/01/14 06:46:20;;;;;;;44.07;18.20;;;-2.00;18.70;;;;;;5025689;28;20471;-69
2024/01/14 06:48:46;;;;;;;43.93;19.83;;;-2.10;18.50;;;;;;5021492;28;20463;-69
2024/01/14 06:51:13;;;;;;;38.20;20.00;;;-2.20;18.50;;;;;;5030561;28;20808;-69
2024/01/14 06:53:40;;;;;;;43.10;19.20;;;-2.30;18.30;;;;;;5024599;28;20467;-69
2024/01/14 06:56:07;;;;;;;43.83;18.40;;;-2.30;18.20;;;;;;5027273;28;20558;-69
2024/01/14 06:58:34;;;;;;;44.70;20.07;;;-2.40;18.20;;;;;;5028738;28;20463;-69
2024/01/14 07:01:04;;;;;;;42.27;18.43;;;-2.50;18.20;;;;;;5024699;28;20480;-69
2024/01/14 07:03:31;;;;;;;39.07;18.53;;;-2.50;18.30;;;;;;5024806;28;20494;-69
2024/01/14 07:05:58;;;;;;;39.77;17.83;;;-2.50;18.50;;;;;;5028453;28;20463;-69
2024/01/14 07:08:25;;;;;;;42.67;18.13;;;-2.60;18.40;;;;;;5025562;28;20482;-69
2024/01/14 07:10:52;;;;;;;44.90;19.23;;;-2.70;18.30;;;;;;5027666;28;20835;-69
2024/01/14 07:13:18;;;;;;;42.30;19.80;;;-2.80;18.30;;;;;;5029651;28;20925;-69
2024/01/14 07:15:45;;;;;;;45.47;19.90;;;-2.80;18.40;;;;;;5025421;28;20942;-69
2024/01/14 07:18:14;;;;;;;44.87;20.17;;;-2.80;18.50;;;;;;5027616;28;20489;-69
2024/01/14 07:20:41;;;;;;;42.63;19.47;;;-2.70;18.60;;;;;;5025799;28;20572;-69
2024/01/14 07:23:08;;;;;;;40.60;19.47;;;-2.80;18.60;;;;;;5028361;28;20482;-68
2024/01/14 07:25:34;;;;;;;41.33;18.80;;;-2.70;18.70;;;;;;5027573;28;20471;-69
2024/01/14 07:28:01;;;;;;;49.80;20.07;;;-2.70;18.80;;;;;;5028247;28;20474;-69
2024/01/14 07:30:27;;;;;;;50.10;22.77;;;-2.70;18.80;;;;;;5026013;28;20200;-69
2024/01/14 07:32:54;;;;;;;44.40;20.33;;;-2.60;18.80;;;;;;5005066;28;20456;-69
2024/01/14 07:35:22;;;;;;;46.10;19.87;;;-2.60;18.80;;;;;;5007160;28;20464;-69
2024/01/14 07:37:49;;;;;;;44.07;19.57;;;-2.60;18.80;;;;;;5007522;28;20484;-69
2024/01/14 07:40:16;;;;;;;48.60;21.23;;;-2.50;18.70;;;;;;5004589;28;20457;-68
2024/01/14 07:42:43;;;;;;;37.60;18.23;;;-2.50;18.60;;;;;;5006783;28;20478;-70
2024/01/14 07:45:10;;;;;;;43.30;19.43;;;-2.40;18.40;;;;;;5008488;28;20468;-69
2024/01/14 07:47:37;;;;;;;43.60;19.80;;;-2.40;18.40;;;;;;5006324;28;20487;-68
2024/01/14 07:50:04;;;;;;;44.40;20.17;;;-2.20;18.50;;;;;;5001788;28;20542;-68
2024/01/14 07:52:32;;;;;;;45.87;20.50;;;-2.30;18.50;;;;;;5010353;28;20906;-68
2024/01/14 07:55:00;;;;;;;39.13;19.73;;;-2.20;18.50;;;;;;5008991;28;20468;-68
2024/01/14 07:57:27;;;;;;;38.03;18.87;;;-2.10;18.50;;;;;;5008463;28;20483;-68
2024/01/14 07:59:54;;;;;;;46.10;21.53;;;-2.10;18.50;;;;;;5004803;28;20468;-68
2024/01/14 08:02:20;;;;;;;45.80;21.40;;;-2.10;18.30;;;;;;5008687;28;20574;-68
2024/01/14 08:04:46;;;;;;;46.53;23.30;;;-2.00;18.20;;;;;;5007991;28;20471;-68
2024/01/14 08:07:14;;;;;;;38.87;21.37;;;-2.00;18.10;;;;;;5007017;28;20863;-68
2024/01/14 08:09:42;;;;;;;46.10;20.47;;;-1.90;18.20;;;;;;5004950;28;20231;-68
2024/01/14 08:12:09;;;;;;;45.00;19.00;;;-1.90;18.10;;;;;;5007503;28;20534;-68
2024/01/14 08:14:36;;;;;;;40.70;20.73;;;-1.90;18.00;;;;;;5005636;28;20462;-68
2024/01/14 08:17:03;;;;;;;43.97;20.90;;;-1.80;17.80;;;;;;5006544;28;20539;-68
2024/01/14 08:19:31;;;;;;;46.80;20.30;;;-1.80;18.00;;;;;;5006484;28;20462;-69
2024/01/14 08:21:58;;;;;;;43.73;20.03;;;-1.70;17.30;;;;;;5003761;28;20579;-68
2024/01/14 08:24:26;;;;;;;41.47;19.00;;;-1.60;17.30;;;;;;5004991;28;20495;-68
2024/01/14 08:26:54;;;;;;;50.33;20.30;;;-1.50;17.20;;;;;;5001773;28;20490;-68
2024/01/14 08:29:22;;;;;;;44.17;21.07;;;-1.50;17.20;;;;;;5003810;28;20579;-68
2024/01/14 08:31:49;;;;;;;47.37;22.50;;;-1.50;17.20;;;;;;5006010;28;20474;-68
2024/01/14 08:34:16;;;;;;;47.30;20.77;;;-1.50;17.10;;;;;;5006452;28;20939;-68
2024/01/14 08:36:42;;;;;;;40.67;20.63;;;-1.50;17.10;;;;;;5000205;28;20484;-68
2024/01/14 08:39:09;;;;;;;59.73;22.07;;;-1.50;17.20;;;;;;5005135;28;20456;-68
2024/01/14 08:41:36;;;;;;;46.10;19.60;;;-1.50;17.30;;;;;;5000163;28;20558;-68
2024/01/14 08:44:06;;;;;;;42.27;19.53;;;-1.50;17.40;;;;;;4997677;28;20968;-69
2024/01/14 08:46:34;;;;;;;41.10;18.53;;;-1.50;17.40;;;;;;5002617;28;20915;-68
2024/01/14 08:49:00;;;;;;;37.00;18.23;;;-1.50;17.50;;;;;;5002277;28;20475;-68
2024/01/14 08:51:30;;;;;;;43.60;20.40;;;-1.50;17.60;;;;;;5005064;28;20460;-68
2024/01/14 08:54:00;;;;;;;43.00;20.00;;;-1.40;17.60;;;;;;5003958;28;20459;-68
2024/01/14 08:56:28;;;;;;;44.23;19.83;;;-1.40;17.60;;;;;;5001490;28;20484;-68
2024/01/14 08:58:54;;;;;;;40.70;19.87;;;-1.40;17.70;;;;;;5003283;28;20512;-69
2024/01/14 09:01:23;;;;;;;42.80;20.63;;;-1.40;17.70;;;;;;5004186;28;20570;-68
2024/01/14 09:03:50;;;;;;;43.80;19.83;;;-1.30;17.70;;;;;;5004593;28;20479;-68
2024/01/14 09:06:17;;;;;;;43.23;21.30;;;-1.20;17.70;;;;;;5003724;28;20468;-69
2024/01/14 09:08:44;;;;;;;36.83;18.67;;;-1.10;17.70;;;;;;4998951;28;20471;-69
2024/01/14 09:11:11;;;;;;;41.00;19.90;;;-1.10;17.70;;;;;;5000135;28;20472;-69
2024/01/14 09:13:38;;;;;;;41.73;19.47;;;-1.00;17.90;;;;;;5004929;28;21169;-69
2024/01/14 09:16:06;;;;;;;47.53;20.80;;;-0.90;18.00;;;;;;5002424;28;20543;-69
2024/01/14 09:18:34;;;;;;;45.93;21.33;;;-0.80;17.90;;;;;;5005551;28;21488;-69
2024/01/14 09:21:00;;;;;;;39.60;20.20;;;-0.80;18.00;;;;;;5003055;28;20499;-68
2024/01/14 09:23:29;;;;;;;42.97;18.80;;;-0.70;17.90;;;;;;5005593;28;20480;-68
2024/01/14 09:25:56;;;;;;;49.97;22.83;;;-0.60;17.60;;;;;;5003905;28;20486;-69
2024/01/14 09:28:24;;;;;;;43.00;21.60;;;-0.50;17.60;;;;;;5001416;28;20868;-69
2024/01/14 09:30:50;;;;;;;37.67;20.70;;;-0.40;17.30;;;;;;5009119;28;20471;-69
2024/01/14 09:33:17;;;;;;;50.67;23.27;;;-0.40;17.40;;;;;;5024170;28;20483;-68
2024/01/14 09:35:46;;;;;;;40.13;20.27;;;-0.30;17.90;;;;;;5023231;28;20980;-68
2024/01/14 09:38:12;;;;;;;42.40;19.63;;;-0.30;17.30;;;;;;5023647;28;20485;-69
2024/01/14 09:40:39;;;;;;;38.00;17.23;;;-0.30;17.10;;;;;;5024879;28;20466;-68
2024/01/14 09:43:10;;;;;;;34.40;17.77;;;-0.20;17.00;;;;;;5023428;28;21190;-67
2024/01/14 09:45:40;;;;;;;32.73;17.40;;;-0.10;16.90;;;;;;5027993;28;20553;-68
2024/01/14 09:48:07;;;;;;;36.50;18.23;;;0.10;17.00;;;;;;5023360;28;20535;-68
2024/01/14 09:50:36;;;;;;;34.20;17.70;;;0.70;16.90;;;;;;5026214;28;20454;-68
2024/01/14 09:53:09;;;;;;;38.90;17.90;;;1.30;16.10;;;;;;5021291;28;20467;-68
2024/01/14 09:55:36;;;;;;;35.17;17.63;;;1.70;14.70;;;;;;5026968;28;20517;-68
2024/01/14 09:58:06;;;;;;;39.40;20.13;;;2.10;14.20;;;;;;5025819;28;20497;-68
2024/01/14 10:00:33;;;;;;;36.07;19.90;;;2.60;13.70;;;;;;5026627;28;21130;-68
2024/01/14 10:03:00;;;;;;;33.93;18.70;;;3.00;13.10;;;;;;5026863;28;20479;-68
2024/01/14 10:05:27;;;;;;;33.33;17.73;;;3.30;11.70;;;;;;5021521;28;20499;-68
2024/01/14 10:07:54;;;;;;;29.20;16.97;;;3.40;11.10;;;;;;5023348;28;20478;-68
2024/01/14 10:10:22;;;;;;;29.37;16.60;;;3.50;10.40;;;;;;5020887;28;20554;-68
2024/01/14 10:12:49;;;;;;;27.80;14.73;;;3.40;9.70;;;;;;5025268;28;20946;-68
2024/01/14 10:15:16;;;;;;;31.20;16.47;;;3.20;9.70;;;;;;5027936;28;20562;-68
2024/01/14 10:17:46;;;;;;;27.00;15.53;;;3.10;9.50;;;;;;5021085;28;20491;-69
2024/01/14 10:20:12;;;;;;;30.50;16.47;;;2.90;9.30;;;;;;5024783;28;20467;-68
2024/01/14 10:22:42;;;;;;;30.23;16.87;;;2.80;9.50;;;;;;5026991;28;21054;-68
2024/01/14 10:25:08;;;;;;;32.53;18.50;;;2.60;9.40;;;;;;5025722;28;20978;-68
2024/01/14 10:27:37;;;;;;;37.07;18.23;;;2.60;9.80;;;;;;5024778;28;20513;-67
2024/01/14 10:30:04;;;;;;;31.03;17.20;;;2.70;10.30;;;;;;5031156;28;20458;-67
2024/01/14 10:32:33;;;;;;;30.60;17.97;;;2.90;10.20;;;;;;5006133;28;20468;-67
2024/01/14 10:35:05;;;;;;;30.73;17.30;;;3.10;10.10;;;;;;5012523;28;20830;-70
2024/01/14 10:37:32;;;;;;;28.70;16.13;;;3.50;10.20;;;;;;5008646;28;20471;-68
2024/01/14 10:39:59;;;;;;;28.70;16.83;;;4.00;9.80;;;;;;5006983;28;20463;-67
2024/01/14 10:42:25;;;;;;;30.00;18.03;;;4.20;8.70;;;;;;5010884;28;21036;-67
2024/01/14 10:44:53;;;;;;;32.77;17.77;;;4.30;8.20;;;;;;5010134;28;20466;-68
2024/01/14 10:47:21;;;;;;;30.80;17.70;;;4.60;8.10;;;;;;5010013;28;20486;-68
2024/01/14 10:49:50;;;;;;;32.30;17.20;;;4.90;7.30;;;;;;5009387;28;20460;-68
2024/01/14 10:55:03;;;;;;;34.50;19.83;;;5.20;6.10;;;;;;5002307;28;20516;-66
2024/01/14 10:57:35;;;;;;;34.77;20.07;;;5.30;5.90;;;;;;5001010;28;20557;-66
2024/01/14 11:00:06;;;;;;;29.53;16.63;;;5.60;5.70;;;;;;5006060;28;20550;-67
2024/01/14 11:02:34;;;;;;;28.90;17.33;;;6.00;5.50;;;;;;5006845;28;20472;-67
2024/01/14 11:05:02;;;;;;;27.87;16.87;;;6.40;5.20;;;;;;5005645;28;20582;-67
2024/01/14 11:07:30;;;;;;;23.77;15.67;;;6.90;3.60;;;;;;5009031;28;20502;-69
2024/01/14 11:09:58;;;;;;;28.57;17.67;;;7.40;2.90;;;;;;5008093;28;20467;-68
2024/01/14 11:12:30;;;;;;;34.33;20.50;;;7.90;1.60;;;;;;5007582;28;21209;-69
2024/01/14 11:15:05;;;;;;;35.33;20.03;;;8.40;1.00;;;;;;5008333;28;20463;-69
2024/01/14 11:17:45;;;;;;;37.20;19.50;;;8.90;1.00;;;;;;5005528;28;20483;-69
2024/01/14 11:20:15;;;;;;;27.43;15.87;;;9.50;1.00;;;;;;5004743;28;20851;-69
2024/01/14 11:22:43;;;;;;;28.83;18.57;;;10.00;1.00;;;;;;5006296;28;21004;-71
2024/01/14 11:25:15;;;;;;;28.20;17.70;;;10.50;1.00;;;;;;5003213;28;20475;-67
2024/01/14 11:27:42;;;;;;;25.10;16.83;;;11.00;1.00;;;;;;5003580;28;20494;-68
2024/01/14 11:30:11;;;;;;;27.33;16.23;;;11.50;1.00;;;;;;5008678;28;20486;-70
2024/01/14 11:32:39;;;;;;;25.43;15.77;;;11.90;1.00;;;;;;5007792;28;20464;-68
2024/01/14 11:35:08;;;;;;;23.97;16.00;;;12.10;1.00;;;;;;5003767;28;20949;-69
2024/01/14 11:37:43;;;;;;;28.80;18.07;;;12.30;1.00;;;;;;5005017;28;20516;-68
2024/01/14 11:40:24;;;;;;;23.00;15.50;;;12.20;1.00;;;;;;5006483;28;20479;-69
2024/01/14 11:42:56;;;;;;;26.73;17.73;;;12.40;1.00;;;;;;5007073;28;20478;-68
2024/01/14 11:45:41;;;;;;;25.50;16.00;;;12.70;1.00;;;;;;5003242;28;20516;-69
2024/01/14 11:48:13;;;;;;;24.93;16.77;;;13.00;1.00;;;;;;5006906;28;20472;-69
2024/01/14 11:50:41;;;;;;;26.37;17.17;;;13.10;1.00;;;;;;5005840;28;20986;-67
2024/01/14 11:53:09;;;;;;;26.53;16.57;;;13.10;1.00;;;;;;5005072;28;20568;-68
2024/01/14 11:55:36;;;;;;;20.97;14.60;;;13.00;1.00;;;;;;5003492;28;20471;-69
2024/01/14 11:58:10;;;;;;;24.57;14.93;;;13.20;1.00;;;;;;5007878;28;20680;-68
2024/01/14 12:00:38;;;;;;;21.90;14.87;;;13.20;1.00;;;;;;5006439;28;20459;-68
2024/01/14 12:03:06;;;;;;;24.93;16.07;;;13.10;1.00;;;;;;5007813;28;20488;-69
2024/01/14 12:05:34;;;;;;;21.07;14.73;;;13.10;1.00;;;;;;5004700;28;20494;-69
2024/01/14 12:08:02;;;;;;;22.50;15.33;;;13.10;1.00;;;;;;5002105;28;20485;-69
2024/01/14 12:10:31;;;;;;;26.60;16.67;;;13.20;1.00;;;;;;5004066;28;21046;-69
2024/01/14 12:13:00;;;;;;;24.83;16.20;;;13.20;1.00;;;;;;5003856;28;20464;-69
2024/01/14 12:15:28;;;;;;;28.20;16.40;;;13.20;1.00;;;;;;5007097;28;21024;-68
2024/01/14 12:17:56;;;;;;;23.80;14.93;;;13.20;1.00;;;;;;5005612;28;20475;-68
2024/01/14 12:20:23;;;;;;;22.63;15.17;;;13.20;1.00;;;;;;5006620;28;20467;-69
2024/01/14 12:22:57;;;;;;;26.83;16.70;;;13.20;1.00;;;;;;5005115;28;20551;-71
2024/01/14 12:25:24;;;;;;;27.30;16.60;;;13.10;1.00;;;;;;5002689;28;20459;-69
2024/01/14 12:27:51;;;;;;;23.63;15.63;;;12.90;1.00;;;;;;5005194;28;20571;-71
2024/01/14 12:30:30;;;;;;;24.00;16.53;;;12.80;1.00;;;;;;5004821;28;20470;-71
2024/01/14 12:32:57;;;;;;;25.73;15.40;;;12.70;1.00;;;;;;5001078;28;20463;-69
2024/01/14 12:35:35;;;;;;;24.00;15.17;;;12.50;1.00;;;;;;5005626;28;20492;-71